sensor_id;sensor_type;location;lat;lon;timestamp;temperature;humidity
14893;DHT22;7538;53.626;9.906;2022-07-23T00:01:26;18.00;99.90
14893;DHT22;7538;53.626;9.906;2022-07-23T00:03:54;18.00;99.90
14893;DHT22;7538;53.626;9.906;2022-07-23T00:08:49;18.00;99.90
14893;DHT22;7538;53.626;9.906;2022-07-23T00:11:20;17.90;99.90
14893;DHT22;7538;53.626;9.906;2022-07-23T00:13:48;17.90;99.90
14893;DHT22;7538;53.626;9.906;2022-07-23T00:18:42;17.90;99.90
14893;DHT22;7538;53.626;9.906;2022-07-23T00:21:09;17.80;99.90
14893;DHT22;7538;53.626;9.906;2022-07-23T00:28:34;17.80;99.90
14893;DHT22;7538;53.626;9.906;2022-07-23T00:31:01;17.70;99.90
14893;DHT22;7538;53.626;9.906;2022-07-23T00:33:28;17.70;99.90
14893;DHT22;7538;53.626;9.906;2022-07-23T00:45:45;17.30;99.90
14893;DHT22;7538;53.626;9.906;2022-07-23T00:50:39;17.40;99.90
14893;DHT22;7538;53.626;9.906;2022-07-23T00:55:34;17.30;99.90
14893;DHT22;7538;53.626;9.906;2022-07-23T00:58:02;17.20;99.90
14893;DHT22;7538;53.626;9.906;2022-07-23T01:00:29;17.20;99.90
14893;DHT22;7538;53.626;9.906;2022-07-23T01:02:57;17.20;99.90
14893;DHT22;7538;53.626;9.906;2022-07-23T01:07:52;17.20;99.90
14893;DHT22;7538;53.626;9.906;2022-07-23T01:10:19;17.10;99.90
14893;DHT22;7538;53.626;9.906;2022-07-23T01:12:58;17.10;99.90
14893;DHT22;7538;53.626;9.906;2022-07-23T01:20:21;17.10;99.90
14893;DHT22;7538;53.626;9.906;2022-07-23T01:22:50;17.00;99.90
14893;DHT22;7538;53.626;9.906;2022-07-23T01:25:17;17.00;99.90
14893;DHT22;7538;53.626;9.906;2022-07-23T01:30:12;17.00;99.90
14893;DHT22;7538;53.626;9.906;2022-07-23T01:32:39;17.00;99.90
14893;DHT22;7538;53.626;9.906;2022-07-23T01:35:08;17.00;99.90
14893;DHT22;7538;53.626;9.906;2022-07-23T01:37:35;17.00;99.90
14893;DHT22;7538;53.626;9.906;2022-07-23T01:40:05;17.00;99.90
14893;DHT22;7538;53.626;9.906;2022-07-23T01:47:26;17.10;99.90
14893;DHT22;7538;53.626;9.906;2022-07-23T01:52:20;17.10;99.90
14893;DHT22;7538;53.626;9.906;2022-07-23T01:57:16;17.20;99.90
14893;DHT22;7538;53.626;9.906;2022-07-23T01:59:42;17.10;99.90
14893;DHT22;7538;53.626;9.906;2022-07-23T02:07:04;17.10;99.90
14893;DHT22;7538;53.626;9.906;2022-07-23T02:09:31;17.10;99.90
14893;DHT22;7538;53.626;9.906;2022-07-23T02:14:27;17.10;99.90
14893;DHT22;7538;53.626;9.906;2022-07-23T02:19:21;17.00;99.90
14893;DHT22;7538;53.626;9.906;2022-07-23T02:26:42;16.90;99.90
14893;DHT22;7538;53.626;9.906;2022-07-23T02:31:38;16.80;99.90
14893;DHT22;7538;53.626;9.906;2022-07-23T02:46:21;16.60;99.90
14893;DHT22;7538;53.626;9.906;2022-07-23T02:48:49;16.60;99.90
14893;DHT22;7538;53.626;9.906;2022-07-23T02:51:16;16.60;99.90
14893;DHT22;7538;53.626;9.906;2022-07-23T02:56:10;16.70;99.90
14893;DHT22;7538;53.626;9.906;2022-07-23T03:06:00;16.80;99.90
14893;DHT22;7538;53.626;9.906;2022-07-23T03:13:21;16.90;99.90
14893;DHT22;7538;53.626;9.906;2022-07-23T03:23:10;16.90;99.90
14893;DHT22;7538;53.626;9.906;2022-07-23T03:25:37;16.90;99.90
14893;DHT22;7538;53.626;9.906;2022-07-23T03:32:59;16.80;99.90
14893;DHT22;7538;53.626;9.906;2022-07-23T03:37:53;16.70;99.90
14893;DHT22;7538;53.626;9.906;2022-07-23T03:40:21;16.70;99.90
14893;DHT22;7538;53.626;9.906;2022-07-23T03:47:42;16.80;99.90
14893;DHT22;7538;53.626;9.906;2022-07-23T03:55:05;16.70;99.90
14893;DHT22;7538;53.626;9.906;2022-07-23T03:57:33;16.70;99.90
14893;DHT22;7538;53.626;9.906;2022-07-23T04:09:48;17.10;99.90
14893;DHT22;7538;53.626;9.906;2022-07-23T04:14:44;17.20;99.90
14893;DHT22;7538;53.626;9.906;2022-07-23T04:17:12;17.30;99.90
14893;DHT22;7538;53.626;9.906;2022-07-23T04:19:39;17.30;99.90
14893;DHT22;7538;53.626;9.906;2022-07-23T04:24:34;17.50;99.90
14893;DHT22;7538;53.626;9.906;2022-07-23T04:31:57;17.50;99.90
14893;DHT22;7538;53.626;9.906;2022-07-23T04:34:24;17.40;99.90
14893;DHT22;7538;53.626;9.906;2022-07-23T04:39:19;17.30;99.90
14893;DHT22;7538;53.626;9.906;2022-07-23T04:44:13;17.10;99.90
14893;DHT22;7538;53.626;9.906;2022-07-23T04:49:09;16.90;99.90
14893;DHT22;7538;53.626;9.906;2022-07-23T04:56:30;16.70;99.90
14893;DHT22;7538;53.626;9.906;2022-07-23T05:06:20;16.90;99.90
14893;DHT22;7538;53.626;9.906;2022-07-23T05:11:14;17.00;99.90
14893;DHT22;7538;53.626;9.906;2022-07-23T05:16:08;17.10;99.90
14893;DHT22;7538;53.626;9.906;2022-07-23T05:21:02;17.20;99.90
14893;DHT22;7538;53.626;9.906;2022-07-23T05:23:30;17.20;99.90
14893;DHT22;7538;53.626;9.906;2022-07-23T05:30:51;17.30;99.90
14893;DHT22;7538;53.626;9.906;2022-07-23T05:35:46;17.30;99.90
14893;DHT22;7538;53.626;9.906;2022-07-23T05:40:41;17.30;99.90
14893;DHT22;7538;53.626;9.906;2022-07-23T05:43:08;17.30;99.90
14893;DHT22;7538;53.626;9.906;2022-07-23T05:50:29;17.50;99.90
14893;DHT22;7538;53.626;9.906;2022-07-23T05:57:52;17.70;99.90
14893;DHT22;7538;53.626;9.906;2022-07-23T06:07:40;17.80;99.90
14893;DHT22;7538;53.626;9.906;2022-07-23T06:10:08;17.90;99.90
14893;DHT22;7538;53.626;9.906;2022-07-23T06:12:35;17.90;99.90
14893;DHT22;7538;53.626;9.906;2022-07-23T06:15:05;18.00;99.90
14893;DHT22;7538;53.626;9.906;2022-07-23T06:19:59;18.10;99.90
14893;DHT22;7538;53.626;9.906;2022-07-23T06:24:53;17.90;99.90
14893;DHT22;7538;53.626;9.906;2022-07-23T06:32:15;18.40;99.90
14893;DHT22;7538;53.626;9.906;2022-07-23T06:37:09;18.70;99.90
14893;DHT22;7538;53.626;9.906;2022-07-23T06:42:04;18.90;99.90
14893;DHT22;7538;53.626;9.906;2022-07-23T06:49:26;18.70;99.90
14893;DHT22;7538;53.626;9.906;2022-07-23T06:56:47;18.80;99.90
14893;DHT22;7538;53.626;9.906;2022-07-23T06:59:14;19.10;99.90
14893;DHT22;7538;53.626;9.906;2022-07-23T07:04:08;19.30;99.90
14893;DHT22;7538;53.626;9.906;2022-07-23T07:06:36;19.10;99.90
14893;DHT22;7538;53.626;9.906;2022-07-23T07:11:30;18.60;99.90
14893;DHT22;7538;53.626;9.906;2022-07-23T07:13:58;18.50;99.90
14893;DHT22;7538;53.626;9.906;2022-07-23T07:23:47;18.00;99.90
14893;DHT22;7538;53.626;9.906;2022-07-23T07:33:36;18.50;99.90
14893;DHT22;7538;53.626;9.906;2022-07-23T07:36:03;18.60;99.90
14893;DHT22;7538;53.626;9.906;2022-07-23T07:38:30;19.00;99.90
14893;DHT22;7538;53.626;9.906;2022-07-23T07:40:58;19.00;99.90
14893;DHT22;7538;53.626;9.906;2022-07-23T07:43:25;19.50;99.90
14893;DHT22;7538;53.626;9.906;2022-07-23T07:45:52;21.60;99.90
14893;DHT22;7538;53.626;9.906;2022-07-23T07:48:19;20.70;99.90
14893;DHT22;7538;53.626;9.906;2022-07-23T07:50:46;21.30;99.90
14893;DHT22;7538;53.626;9.906;2022-07-23T07:53:12;22.00;99.90
14893;DHT22;7538;53.626;9.906;2022-07-23T07:55:39;22.40;97.60
14893;DHT22;7538;53.626;9.906;2022-07-23T07:58:07;22.20;97.60
14893;DHT22;7538;53.626;9.906;2022-07-23T08:00:34;22.10;98.10
14893;DHT22;7538;53.626;9.906;2022-07-23T08:03:01;22.10;98.10
14893;DHT22;7538;53.626;9.906;2022-07-23T08:05:29;21.60;99.50
14893;DHT22;7538;53.626;9.906;2022-07-23T08:07:57;20.70;99.90
14893;DHT22;7538;53.626;9.906;2022-07-23T08:10:26;20.40;99.90
14893;DHT22;7538;53.626;9.906;2022-07-23T08:12:54;20.20;99.90
14893;DHT22;7538;53.626;9.906;2022-07-23T08:15:23;20.10;99.90
14893;DHT22;7538;53.626;9.906;2022-07-23T08:17:51;19.90;99.90
14893;DHT22;7538;53.626;9.906;2022-07-23T08:20:20;20.00;99.90
14893;DHT22;7538;53.626;9.906;2022-07-23T08:22:49;20.20;99.90
14893;DHT22;7538;53.626;9.906;2022-07-23T08:25:19;20.20;99.90
14893;DHT22;7538;53.626;9.906;2022-07-23T08:27:46;20.40;99.90
14893;DHT22;7538;53.626;9.906;2022-07-23T08:30:14;20.20;99.90
14893;DHT22;7538;53.626;9.906;2022-07-23T08:32:52;20.20;99.90
14893;DHT22;7538;53.626;9.906;2022-07-23T08:35:23;20.40;99.90
14893;DHT22;7538;53.626;9.906;2022-07-23T08:37:50;21.00;99.90
14893;DHT22;7538;53.626;9.906;2022-07-23T08:40:17;21.70;99.80
14893;DHT22;7538;53.626;9.906;2022-07-23T08:42:46;22.50;97.90
14893;DHT22;7538;53.626;9.906;2022-07-23T08:45:16;23.00;95.80
14893;DHT22;7538;53.626;9.906;2022-07-23T08:47:43;23.40;94.70
14893;DHT22;7538;53.626;9.906;2022-07-23T08:50:12;23.70;93.20
14893;DHT22;7538;53.626;9.906;2022-07-23T08:52:40;23.40;92.30
14893;DHT22;7538;53.626;9.906;2022-07-23T08:55:08;23.20;93.00
14893;DHT22;7538;53.626;9.906;2022-07-23T08:57:35;23.20;92.70
14893;DHT22;7538;53.626;9.906;2022-07-23T09:00:03;23.50;92.90
14893;DHT22;7538;53.626;9.906;2022-07-23T09:02:30;23.90;92.20
14893;DHT22;7538;53.626;9.906;2022-07-23T09:04:57;24.40;91.70
14893;DHT22;7538;53.626;9.906;2022-07-23T09:07:25;24.70;90.80
14893;DHT22;7538;53.626;9.906;2022-07-23T09:10:06;25.00;90.20
14893;DHT22;7538;53.626;9.906;2022-07-23T09:12:33;25.30;87.60
14893;DHT22;7538;53.626;9.906;2022-07-23T09:15:05;25.80;87.40
14893;DHT22;7538;53.626;9.906;2022-07-23T09:17:37;25.80;87.20
14893;DHT22;7538;53.626;9.906;2022-07-23T09:20:10;25.50;87.40
14893;DHT22;7538;53.626;9.906;2022-07-23T09:22:39;25.20;88.50
14893;DHT22;7538;53.626;9.906;2022-07-23T09:25:09;24.80;88.90
14893;DHT22;7538;53.626;9.906;2022-07-23T09:27:55;24.10;90.40
14893;DHT22;7538;53.626;9.906;2022-07-23T09:30:23;23.80;91.00
14893;DHT22;7538;53.626;9.906;2022-07-23T09:33:06;23.60;91.60
14893;DHT22;7538;53.626;9.906;2022-07-23T09:35:48;23.30;92.00
14893;DHT22;7538;53.626;9.906;2022-07-23T09:38:17;23.00;92.40
14893;DHT22;7538;53.626;9.906;2022-07-23T09:40:44;23.10;92.60
14893;DHT22;7538;53.626;9.906;2022-07-23T09:43:12;23.00;92.00
14893;DHT22;7538;53.626;9.906;2022-07-23T09:45:40;23.10;91.60
14893;DHT22;7538;53.626;9.906;2022-07-23T09:48:11;22.80;91.80
14893;DHT22;7538;53.626;9.906;2022-07-23T09:50:40;22.50;92.40
14893;DHT22;7538;53.626;9.906;2022-07-23T09:53:07;22.20;93.30
14893;DHT22;7538;53.626;9.906;2022-07-23T09:55:36;21.60;94.40
14893;DHT22;7538;53.626;9.906;2022-07-23T09:58:04;21.10;95.70
14893;DHT22;7538;53.626;9.906;2022-07-23T10:00:32;21.10;96.00
14893;DHT22;7538;53.626;9.906;2022-07-23T10:02:59;20.60;97.20
14893;DHT22;7538;53.626;9.906;2022-07-23T10:05:28;20.40;97.60
14893;DHT22;7538;53.626;9.906;2022-07-23T10:10:26;20.00;98.40
14893;DHT22;7538;53.626;9.906;2022-07-23T10:12:56;20.00;98.70
14893;DHT22;7538;53.626;9.906;2022-07-23T10:15:40;20.00;99.00
14893;DHT22;7538;53.626;9.906;2022-07-23T10:18:10;20.40;99.00
14893;DHT22;7538;53.626;9.906;2022-07-23T10:20:37;20.70;97.80
14893;DHT22;7538;53.626;9.906;2022-07-23T10:23:10;21.10;96.80
14893;DHT22;7538;53.626;9.906;2022-07-23T10:25:41;21.20;96.50
14893;DHT22;7538;53.626;9.906;2022-07-23T10:28:47;21.10;96.40
14893;DHT22;7538;53.626;9.906;2022-07-23T10:31:28;21.10;97.10
14893;DHT22;7538;53.626;9.906;2022-07-23T10:34:05;21.00;97.80
14893;DHT22;7538;53.626;9.906;2022-07-23T10:36:42;20.90;97.80
14893;DHT22;7538;53.626;9.906;2022-07-23T10:39:15;20.70;98.90
14893;DHT22;7538;53.626;9.906;2022-07-23T10:41:44;20.50;99.10
14893;DHT22;7538;53.626;9.906;2022-07-23T10:44:13;20.50;99.00
14893;DHT22;7538;53.626;9.906;2022-07-23T10:46:55;20.40;99.20
14893;DHT22;7538;53.626;9.906;2022-07-23T10:49:31;20.40;98.80
14893;DHT22;7538;53.626;9.906;2022-07-23T10:52:18;20.30;98.40
14893;DHT22;7538;53.626;9.906;2022-07-23T10:54:46;20.20;98.60
14893;DHT22;7538;53.626;9.906;2022-07-23T10:57:14;20.00;99.00
14893;DHT22;7538;53.626;9.906;2022-07-23T11:00:15;20.10;99.40
14893;DHT22;7538;53.626;9.906;2022-07-23T11:02:45;20.10;99.90
14893;DHT22;7538;53.626;9.906;2022-07-23T11:05:14;20.20;99.90
14893;DHT22;7538;53.626;9.906;2022-07-23T11:10:49;20.30;99.90
14893;DHT22;7538;53.626;9.906;2022-07-23T11:13:30;20.20;98.90
14893;DHT22;7538;53.626;9.906;2022-07-23T11:16:16;20.30;98.40
14893;DHT22;7538;53.626;9.906;2022-07-23T11:21:47;20.40;98.50
14893;DHT22;7538;53.626;9.906;2022-07-23T11:24:22;20.50;97.80
14893;DHT22;7538;53.626;9.906;2022-07-23T11:27:00;20.70;96.90
14893;DHT22;7538;53.626;9.906;2022-07-23T11:29:58;20.60;97.80
14893;DHT22;7538;53.626;9.906;2022-07-23T11:35:25;20.60;98.20
14893;DHT22;7538;53.626;9.906;2022-07-23T11:37:54;20.70;98.50
14893;DHT22;7538;53.626;9.906;2022-07-23T11:40:25;20.80;98.70
14893;DHT22;7538;53.626;9.906;2022-07-23T11:42:55;21.10;98.30
14893;DHT22;7538;53.626;9.906;2022-07-23T11:45:24;21.20;97.60
14893;DHT22;7538;53.626;9.906;2022-07-23T11:47:53;21.30;97.50
14893;DHT22;7538;53.626;9.906;2022-07-23T11:50:23;21.40;96.00
14893;DHT22;7538;53.626;9.906;2022-07-23T11:52:50;21.40;96.20
14893;DHT22;7538;53.626;9.906;2022-07-23T11:55:17;21.40;96.20
14893;DHT22;7538;53.626;9.906;2022-07-23T11:57:45;21.40;96.50
14893;DHT22;7538;53.626;9.906;2022-07-23T12:00:14;21.40;95.90
14893;DHT22;7538;53.626;9.906;2022-07-23T12:02:43;21.30;96.60
14893;DHT22;7538;53.626;9.906;2022-07-23T12:05:17;21.40;96.80
14893;DHT22;7538;53.626;9.906;2022-07-23T12:07:44;21.20;96.00
14893;DHT22;7538;53.626;9.906;2022-07-23T12:10:17;21.20;96.30
14893;DHT22;7538;53.626;9.906;2022-07-23T12:12:45;21.10;96.00
14893;DHT22;7538;53.626;9.906;2022-07-23T12:15:15;21.10;96.30
14893;DHT22;7538;53.626;9.906;2022-07-23T12:17:44;21.10;96.50
14893;DHT22;7538;53.626;9.906;2022-07-23T12:20:15;21.00;96.10
14893;DHT22;7538;53.626;9.906;2022-07-23T12:22:45;21.10;96.30
14893;DHT22;7538;53.626;9.906;2022-07-23T12:25:13;21.20;95.50
14893;DHT22;7538;53.626;9.906;2022-07-23T12:27:41;21.40;95.40
14893;DHT22;7538;53.626;9.906;2022-07-23T12:30:22;21.30;95.20
14893;DHT22;7538;53.626;9.906;2022-07-23T12:32:51;21.20;95.40
14893;DHT22;7538;53.626;9.906;2022-07-23T12:35:20;21.20;94.30
14893;DHT22;7538;53.626;9.906;2022-07-23T12:37:49;21.20;94.60
14893;DHT22;7538;53.626;9.906;2022-07-23T12:40:23;21.20;94.70
14893;DHT22;7538;53.626;9.906;2022-07-23T12:42:53;21.30;94.40
14893;DHT22;7538;53.626;9.906;2022-07-23T12:45:20;21.20;94.20
14893;DHT22;7538;53.626;9.906;2022-07-23T12:47:59;21.20;94.50
14893;DHT22;7538;53.626;9.906;2022-07-23T12:50:40;21.40;94.20
14893;DHT22;7538;53.626;9.906;2022-07-23T12:53:10;21.60;94.50
14893;DHT22;7538;53.626;9.906;2022-07-23T12:55:38;21.80;94.20
14893;DHT22;7538;53.626;9.906;2022-07-23T12:58:07;21.60;93.90
14893;DHT22;7538;53.626;9.906;2022-07-23T13:01:00;21.70;94.30
14893;DHT22;7538;53.626;9.906;2022-07-23T13:03:33;21.90;93.70
14893;DHT22;7538;53.626;9.906;2022-07-23T13:06:03;22.10;93.40
14893;DHT22;7538;53.626;9.906;2022-07-23T13:08:32;22.30;92.90
14893;DHT22;7538;53.626;9.906;2022-07-23T13:11:00;22.40;92.60
14893;DHT22;7538;53.626;9.906;2022-07-23T13:13:30;22.60;92.30
14893;DHT22;7538;53.626;9.906;2022-07-23T13:15:57;22.40;92.40
14893;DHT22;7538;53.626;9.906;2022-07-23T13:18:25;22.20;92.40
14893;DHT22;7538;53.626;9.906;2022-07-23T13:20:52;21.60;92.40
14893;DHT22;7538;53.626;9.906;2022-07-23T13:23:21;21.60;92.70
14893;DHT22;7538;53.626;9.906;2022-07-23T13:25:48;21.60;93.20
14893;DHT22;7538;53.626;9.906;2022-07-23T13:28:16;21.70;93.40
14893;DHT22;7538;53.626;9.906;2022-07-23T13:30:44;21.70;93.40
14893;DHT22;7538;53.626;9.906;2022-07-23T13:33:11;21.80;93.30
14893;DHT22;7538;53.626;9.906;2022-07-23T13:35:38;21.70;93.20
14893;DHT22;7538;53.626;9.906;2022-07-23T13:38:06;21.50;93.40
14893;DHT22;7538;53.626;9.906;2022-07-23T13:40:36;21.30;94.00
14893;DHT22;7538;53.626;9.906;2022-07-23T13:43:05;21.10;94.30
14893;DHT22;7538;53.626;9.906;2022-07-23T13:45:32;21.10;94.60
14893;DHT22;7538;53.626;9.906;2022-07-23T13:47:59;21.20;94.90
14893;DHT22;7538;53.626;9.906;2022-07-23T13:50:26;21.20;95.20
14893;DHT22;7538;53.626;9.906;2022-07-23T13:52:53;21.50;95.30
14893;DHT22;7538;53.626;9.906;2022-07-23T13:55:20;21.40;94.80
14893;DHT22;7538;53.626;9.906;2022-07-23T13:57:48;21.40;95.20
14893;DHT22;7538;53.626;9.906;2022-07-23T14:00:16;21.40;94.90
14893;DHT22;7538;53.626;9.906;2022-07-23T14:02:43;21.60;95.20
14893;DHT22;7538;53.626;9.906;2022-07-23T14:05:10;21.40;94.40
14893;DHT22;7538;53.626;9.906;2022-07-23T14:07:38;21.40;94.60
14893;DHT22;7538;53.626;9.906;2022-07-23T14:10:07;21.50;94.30
14893;DHT22;7538;53.626;9.906;2022-07-23T14:12:35;21.60;93.70
14893;DHT22;7538;53.626;9.906;2022-07-23T14:15:04;21.50;93.70
14893;DHT22;7538;53.626;9.906;2022-07-23T14:17:31;21.50;93.80
14893;DHT22;7538;53.626;9.906;2022-07-23T14:19:58;21.70;94.20
14893;DHT22;7538;53.626;9.906;2022-07-23T14:22:25;21.80;93.80
14893;DHT22;7538;53.626;9.906;2022-07-23T14:24:52;21.70;93.80
14893;DHT22;7538;53.626;9.906;2022-07-23T14:27:19;21.80;93.70
14893;DHT22;7538;53.626;9.906;2022-07-23T14:29:46;21.80;92.90
14893;DHT22;7538;53.626;9.906;2022-07-23T14:32:14;21.70;93.00
14893;DHT22;7538;53.626;9.906;2022-07-23T14:34:41;21.50;93.30
14893;DHT22;7538;53.626;9.906;2022-07-23T14:37:09;21.50;93.60
14893;DHT22;7538;53.626;9.906;2022-07-23T14:39:36;21.60;93.80
14893;DHT22;7538;53.626;9.906;2022-07-23T14:42:04;21.60;93.60
14893;DHT22;7538;53.626;9.906;2022-07-23T14:44:31;21.60;93.20
14893;DHT22;7538;53.626;9.906;2022-07-23T14:46:58;21.60;93.20
14893;DHT22;7538;53.626;9.906;2022-07-23T14:49:26;21.50;93.40
14893;DHT22;7538;53.626;9.906;2022-07-23T14:51:53;21.50;93.50
14893;DHT22;7538;53.626;9.906;2022-07-23T14:54:20;21.50;93.60
14893;DHT22;7538;53.626;9.906;2022-07-23T14:56:47;21.50;93.70
14893;DHT22;7538;53.626;9.906;2022-07-23T14:59:14;21.50;94.00
14893;DHT22;7538;53.626;9.906;2022-07-23T15:01:41;21.30;94.10
14893;DHT22;7538;53.626;9.906;2022-07-23T15:04:08;21.30;94.40
14893;DHT22;7538;53.626;9.906;2022-07-23T15:06:36;21.20;93.60
14893;DHT22;7538;53.626;9.906;2022-07-23T15:11:31;21.00;93.80
14893;DHT22;7538;53.626;9.906;2022-07-23T15:14:00;20.90;94.30
14893;DHT22;7538;53.626;9.906;2022-07-23T15:21:21;20.60;95.70
14893;DHT22;7538;53.626;9.906;2022-07-23T15:23:49;20.40;94.90
14893;DHT22;7538;53.626;9.906;2022-07-23T15:26:17;20.40;95.10
14893;DHT22;7538;53.626;9.906;2022-07-23T15:28:44;20.50;94.60
14893;DHT22;7538;53.626;9.906;2022-07-23T15:31:11;20.60;94.90
14893;DHT22;7538;53.626;9.906;2022-07-23T15:33:38;20.70;95.10
14893;DHT22;7538;53.626;9.906;2022-07-23T15:36:06;20.90;94.30
14893;DHT22;7538;53.626;9.906;2022-07-23T15:38:34;20.80;94.30
14893;DHT22;7538;53.626;9.906;2022-07-23T15:41:03;20.70;94.50
14893;DHT22;7538;53.626;9.906;2022-07-23T15:43:30;20.70;94.70
14893;DHT22;7538;53.626;9.906;2022-07-23T15:48:24;20.90;94.20
14893;DHT22;7538;53.626;9.906;2022-07-23T15:50:51;20.80;93.40
14893;DHT22;7538;53.626;9.906;2022-07-23T15:53:19;20.90;93.60
14893;DHT22;7538;53.626;9.906;2022-07-23T15:55:46;21.00;93.30
14893;DHT22;7538;53.626;9.906;2022-07-23T15:58:14;21.20;93.20
14893;DHT22;7538;53.626;9.906;2022-07-23T16:00:41;21.10;93.00
14893;DHT22;7538;53.626;9.906;2022-07-23T16:03:08;21.20;93.20
14893;DHT22;7538;53.626;9.906;2022-07-23T16:05:35;21.10;92.90
14893;DHT22;7538;53.626;9.906;2022-07-23T16:08:04;21.10;93.20
14893;DHT22;7538;53.626;9.906;2022-07-23T16:10:31;21.10;93.10
14893;DHT22;7538;53.626;9.906;2022-07-23T16:12:58;21.20;93.20
14893;DHT22;7538;53.626;9.906;2022-07-23T16:15:26;21.20;92.90
14893;DHT22;7538;53.626;9.906;2022-07-23T16:17:53;21.10;93.00
14893;DHT22;7538;53.626;9.906;2022-07-23T16:20:20;20.90;92.90
14893;DHT22;7538;53.626;9.906;2022-07-23T16:27:42;20.70;93.40
14893;DHT22;7538;53.626;9.906;2022-07-23T16:30:10;20.70;94.20
14893;DHT22;7538;53.626;9.906;2022-07-23T16:32:39;20.80;93.60
14893;DHT22;7538;53.626;9.906;2022-07-23T16:35:07;20.70;93.90
14893;DHT22;7538;53.626;9.906;2022-07-23T16:37:34;20.50;94.10
14893;DHT22;7538;53.626;9.906;2022-07-23T16:40:02;20.50;94.40
14893;DHT22;7538;53.626;9.906;2022-07-23T16:42:29;20.40;94.20
14893;DHT22;7538;53.626;9.906;2022-07-23T16:44:56;20.40;94.10
14893;DHT22;7538;53.626;9.906;2022-07-23T16:47:23;20.40;94.20
14893;DHT22;7538;53.626;9.906;2022-07-23T16:49:51;20.40;94.50
14893;DHT22;7538;53.626;9.906;2022-07-23T16:52:18;20.50;94.20
14893;DHT22;7538;53.626;9.906;2022-07-23T16:54:45;20.60;94.50
14893;DHT22;7538;53.626;9.906;2022-07-23T16:57:12;20.40;94.20
14893;DHT22;7538;53.626;9.906;2022-07-23T16:59:39;20.50;94.10
14893;DHT22;7538;53.626;9.906;2022-07-23T17:02:06;20.50;94.10
14893;DHT22;7538;53.626;9.906;2022-07-23T17:04:32;20.40;94.00
14893;DHT22;7538;53.626;9.906;2022-07-23T17:07:01;20.40;94.20
14893;DHT22;7538;53.626;9.906;2022-07-23T17:09:31;20.30;94.30
14893;DHT22;7538;53.626;9.906;2022-07-23T17:14:25;20.10;95.00
14893;DHT22;7538;53.626;9.906;2022-07-23T17:16:52;20.00;95.30
14893;DHT22;7538;53.626;9.906;2022-07-23T17:19:19;20.00;95.50
14893;DHT22;7538;53.626;9.906;2022-07-23T17:21:46;20.00;95.80
14893;DHT22;7538;53.626;9.906;2022-07-23T17:24:14;19.90;96.30
14893;DHT22;7538;53.626;9.906;2022-07-23T17:26:41;19.90;96.40
14893;DHT22;7538;53.626;9.906;2022-07-23T17:34:02;19.80;97.10
14893;DHT22;7538;53.626;9.906;2022-07-23T17:36:30;19.90;97.20
14893;DHT22;7538;53.626;9.906;2022-07-23T17:41:25;19.80;97.20
14893;DHT22;7538;53.626;9.906;2022-07-23T17:46:20;19.50;97.80
14893;DHT22;7538;53.626;9.906;2022-07-23T17:48:46;19.50;97.70
14893;DHT22;7538;53.626;9.906;2022-07-23T17:51:13;19.50;97.60
14893;DHT22;7538;53.626;9.906;2022-07-23T17:53:40;19.50;97.40
14893;DHT22;7538;53.626;9.906;2022-07-23T17:56:07;19.40;97.50
14893;DHT22;7538;53.626;9.906;2022-07-23T17:58:36;19.40;97.20
14893;DHT22;7538;53.626;9.906;2022-07-23T18:01:04;19.30;97.00
14893;DHT22;7538;53.626;9.906;2022-07-23T18:03:32;19.30;97.00
14893;DHT22;7538;53.626;9.906;2022-07-23T18:15:49;19.00;97.20
14893;DHT22;7538;53.626;9.906;2022-07-23T18:18:16;19.00;97.30
14893;DHT22;7538;53.626;9.906;2022-07-23T18:20:43;19.10;97.40
14893;DHT22;7538;53.626;9.906;2022-07-23T18:23:10;19.10;96.90
14893;DHT22;7538;53.626;9.906;2022-07-23T18:28:04;18.90;96.60
14893;DHT22;7538;53.626;9.906;2022-07-23T18:30:31;18.70;96.20
14893;DHT22;7538;53.626;9.906;2022-07-23T18:32:59;18.80;96.50
14893;DHT22;7538;53.626;9.906;2022-07-23T18:35:26;18.60;96.70
14893;DHT22;7538;53.626;9.906;2022-07-23T18:45:15;18.60;97.00
14893;DHT22;7538;53.626;9.906;2022-07-23T18:50:12;18.50;97.00
14893;DHT22;7538;53.626;9.906;2022-07-23T18:52:40;18.40;97.20
14893;DHT22;7538;53.626;9.906;2022-07-23T18:55:07;18.40;97.50
14893;DHT22;7538;53.626;9.906;2022-07-23T18:57:34;18.40;97.70
14893;DHT22;7538;53.626;9.906;2022-07-23T19:00:03;18.40;98.10
14893;DHT22;7538;53.626;9.906;2022-07-23T19:02:31;18.30;98.10
14893;DHT22;7538;53.626;9.906;2022-07-23T19:07:26;18.20;98.50
14893;DHT22;7538;53.626;9.906;2022-07-23T19:09:53;18.10;98.60
14893;DHT22;7538;53.626;9.906;2022-07-23T19:12:20;18.10;98.90
14893;DHT22;7538;53.626;9.906;2022-07-23T19:14:47;18.10;98.90
14893;DHT22;7538;53.626;9.906;2022-07-23T19:19:41;18.10;99.00
14893;DHT22;7538;53.626;9.906;2022-07-23T19:22:07;18.10;99.20
14893;DHT22;7538;53.626;9.906;2022-07-23T19:24:36;18.10;99.30
14893;DHT22;7538;53.626;9.906;2022-07-23T19:27:04;18.00;99.40
14893;DHT22;7538;53.626;9.906;2022-07-23T19:29:31;18.00;99.60
14893;DHT22;7538;53.626;9.906;2022-07-23T19:34:28;17.90;99.90
14893;DHT22;7538;53.626;9.906;2022-07-23T19:36:55;17.90;99.80
14893;DHT22;7538;53.626;9.906;2022-07-23T19:39:23;17.90;99.90
14893;DHT22;7538;53.626;9.906;2022-07-23T19:41:51;17.80;99.90
14893;DHT22;7538;53.626;9.906;2022-07-23T19:51:40;17.70;99.90
14893;DHT22;7538;53.626;9.906;2022-07-23T19:59:02;17.60;99.90
14893;DHT22;7538;53.626;9.906;2022-07-23T20:03:58;17.50;99.90
14893;DHT22;7538;53.626;9.906;2022-07-23T20:06:24;17.50;99.90
14893;DHT22;7538;53.626;9.906;2022-07-23T20:16:15;17.30;99.90
14893;DHT22;7538;53.626;9.906;2022-07-23T20:18:42;17.30;99.90
14893;DHT22;7538;53.626;9.906;2022-07-23T20:21:09;17.20;99.90
14893;DHT22;7538;53.626;9.906;2022-07-23T20:33:31;17.00;99.90
14893;DHT22;7538;53.626;9.906;2022-07-23T20:35:58;16.90;99.90
14893;DHT22;7538;53.626;9.906;2022-07-23T20:38:25;16.90;99.90
14893;DHT22;7538;53.626;9.906;2022-07-23T20:43:20;16.80;99.90
14893;DHT22;7538;53.626;9.906;2022-07-23T20:50:42;16.70;99.90
14893;DHT22;7538;53.626;9.906;2022-07-23T20:53:11;16.70;99.90
14893;DHT22;7538;53.626;9.906;2022-07-23T20:55:37;16.60;99.90
14893;DHT22;7538;53.626;9.906;2022-07-23T20:58:04;16.60;99.90
14893;DHT22;7538;53.626;9.906;2022-07-23T21:02:59;16.50;99.90
14893;DHT22;7538;53.626;9.906;2022-07-23T21:05:25;16.50;99.90
14893;DHT22;7538;53.626;9.906;2022-07-23T21:07:54;16.40;99.90
14893;DHT22;7538;53.626;9.906;2022-07-23T21:12:48;16.40;99.90
14893;DHT22;7538;53.626;9.906;2022-07-23T21:15:15;16.30;99.90
14893;DHT22;7538;53.626;9.906;2022-07-23T21:20:09;16.20;99.90
14893;DHT22;7538;53.626;9.906;2022-07-23T21:25:07;16.10;99.90
14893;DHT22;7538;53.626;9.906;2022-07-23T21:30:01;16.00;99.90
14893;DHT22;7538;53.626;9.906;2022-07-23T21:42:19;15.70;99.90
14893;DHT22;7538;53.626;9.906;2022-07-23T21:44:46;15.70;99.90
14893;DHT22;7538;53.626;9.906;2022-07-23T21:49:40;15.60;99.90
14893;DHT22;7538;53.626;9.906;2022-07-23T21:54:34;15.50;99.90
14893;DHT22;7538;53.626;9.906;2022-07-23T21:57:02;15.50;99.90
14893;DHT22;7538;53.626;9.906;2022-07-23T21:59:30;15.50;99.90